createdAt,value
2022-10-02T00:01:59.642Z,14.40
2022-10-02T00:04:37.347Z,14.50
2022-10-02T00:07:09.641Z,14.40
2022-10-02T00:09:51.596Z,14.50
2022-10-02T00:12:23.436Z,14.50
2022-10-02T00:14:57.651Z,14.50
2022-10-02T00:17:37.919Z,14.50
2022-10-02T00:20:17.011Z,14.60
2022-10-02T00:22:57.249Z,14.60
2022-10-02T00:25:43.269Z,14.60
2022-10-02T00:28:27.525Z,14.60
2022-10-02T00:30:57.002Z,14.70
2022-10-02T00:33:51.434Z,14.70
2022-10-02T00:36:26.259Z,14.70
2022-10-02T00:39:25.140Z,14.70
2022-10-02T00:42:36.116Z,14.70
2022-10-02T00:45:52.126Z,14.70
2022-10-02T00:48:55.786Z,14.70
2022-10-02T00:51:49.831Z,14.70
2022-10-02T00:54:53.530Z,14.70
2022-10-02T00:57:45.382Z,14.70
2022-10-02T01:00:17.354Z,14.70
2022-10-02T01:02:53.827Z,14.70
2022-10-02T01:05:21.326Z,14.70
2022-10-02T01:07:54.033Z,14.70
2022-10-02T01:10:25.531Z,14.70
2022-10-02T01:12:55.157Z,14.70
2022-10-02T01:15:29.997Z,14.70
2022-10-02T01:17:57.254Z,14.70
2022-10-02T01:20:41.827Z,14.70
2022-10-02T01:23:27.117Z,14.70
2022-10-02T01:25:54.041Z,14.70
2022-10-02T01:28:22.659Z,14.80
2022-10-02T01:30:56.510Z,14.70
2022-10-02T01:33:23.897Z,14.60
2022-10-02T01:35:51.192Z,14.70
2022-10-02T01:38:23.477Z,14.70
2022-10-02T01:40:50.867Z,14.60
2022-10-02T01:43:37.190Z,14.60
2022-10-02T01:46:32.878Z,14.60
2022-10-02T01:49:47.769Z,14.60
2022-10-02T01:52:58.734Z,14.60
2022-10-02T01:56:03.540Z,14.60
2022-10-02T01:58:48.688Z,14.60
2022-10-02T02:01:24.612Z,15.50
2022-10-02T02:04:10.428Z,14.60
2022-10-02T02:07:04.298Z,14.50
2022-10-02T02:09:53.969Z,14.50
2022-10-02T02:12:45.502Z,14.50
2022-10-02T02:15:34.772Z,14.50
2022-10-02T02:18:20.906Z,14.50
2022-10-02T02:20:53.258Z,14.40
2022-10-02T02:23:30.534Z,14.40
2022-10-02T02:26:04.429Z,14.30
2022-10-02T02:28:33.827Z,14.40
2022-10-02T02:31:02.994Z,14.50
2022-10-02T02:33:44.046Z,14.40
2022-10-02T02:36:16.873Z,14.50
2022-10-02T02:38:51.276Z,14.40
2022-10-02T02:41:27.636Z,14.40
2022-10-02T02:44:03.667Z,14.40
2022-10-02T02:47:01.382Z,14.40
2022-10-02T02:49:36.627Z,14.40
2022-10-02T02:52:09.633Z,14.40
2022-10-02T02:54:48.634Z,14.40
2022-10-02T02:57:19.015Z,14.40
2022-10-02T02:59:50.414Z,14.40
2022-10-02T03:02:17.236Z,14.30
2022-10-02T03:04:44.062Z,14.40
2022-10-02T03:07:17.293Z,14.40
2022-10-02T03:10:09.488Z,14.30
2022-10-02T03:13:02.561Z,14.30
2022-10-02T03:16:01.560Z,14.30
2022-10-02T03:19:02.503Z,14.30
2022-10-02T03:21:42.486Z,14.30
2022-10-02T03:24:26.907Z,14.30
2022-10-02T03:27:01.730Z,14.30
2022-10-02T03:29:56.994Z,14.20
2022-10-02T03:32:26.862Z,14.30
2022-10-02T03:34:54.455Z,14.30
2022-10-02T03:37:22.243Z,14.30
2022-10-02T03:39:51.617Z,14.30
2022-10-02T03:42:26.270Z,14.20
2022-10-02T03:44:53.050Z,14.20
2022-10-02T03:47:19.797Z,14.20
2022-10-02T03:49:46.549Z,14.20
2022-10-02T03:52:22.771Z,14.20
2022-10-02T03:54:56.717Z,14.10
2022-10-02T03:57:25.506Z,14.20
2022-10-02T04:00:12.821Z,14.20
2022-10-02T04:03:01.151Z,14.20
2022-10-02T04:05:39.381Z,14.20
2022-10-02T04:08:21.345Z,14.10
2022-10-02T04:11:00.299Z,14.10
2022-10-02T04:14:06.782Z,14.10
2022-10-02T04:17:02.307Z,14.10
2022-10-02T04:19:41.869Z,14.10
2022-10-02T04:22:37.553Z,14.10
2022-10-02T04:25:16.478Z,14.10
2022-10-02T04:28:01.478Z,14.10
2022-10-02T04:30:30.106Z,14.10
2022-10-02T04:33:10.829Z,14.10
2022-10-02T04:36:05.826Z,14.10
2022-10-02T04:39:07.641Z,14.10
2022-10-02T04:41:57.371Z,14.10
2022-10-02T04:45:09.168Z,14.10
2022-10-02T04:48:35.059Z,14.10
2022-10-02T04:51:36.645Z,14.10
2022-10-02T04:54:37.128Z,14.10
2022-10-02T04:57:42.146Z,14.20
2022-10-02T05:00:15.187Z,14.20
2022-10-02T05:03:21.980Z,14.20
2022-10-02T05:06:28.308Z,14.20
2022-10-02T05:09:47.905Z,14.20
2022-10-02T05:12:39.762Z,14.30
2022-10-02T05:15:53.370Z,14.40
2022-10-02T05:18:58.074Z,14.40
2022-10-02T05:22:23.106Z,14.40
2022-10-02T05:25:06.050Z,14.40
2022-10-02T05:28:04.543Z,14.40
2022-10-02T05:30:53.321Z,14.50
2022-10-02T05:34:04.227Z,14.50
2022-10-02T05:36:59.762Z,14.50
2022-10-02T05:39:47.937Z,14.60
2022-10-02T05:42:33.005Z,14.60
2022-10-02T05:45:28.304Z,14.60
2022-10-02T05:48:12.365Z,14.60
2022-10-02T05:50:41.520Z,14.60
2022-10-02T05:53:37.141Z,14.60
2022-10-02T05:56:47.173Z,14.60
2022-10-02T05:59:36.226Z,14.70
2022-10-02T06:02:29.637Z,14.70
2022-10-02T06:05:26.838Z,14.70
2022-10-02T06:08:01.102Z,14.80
2022-10-02T06:10:34.508Z,14.90
2022-10-02T06:13:13.621Z,14.90
2022-10-02T06:16:00.972Z,15.00
2022-10-02T06:18:33.900Z,15.10
2022-10-02T06:21:36.017Z,15.20
2022-10-02T06:24:15.704Z,15.30
2022-10-02T06:27:03.262Z,15.30
2022-10-02T06:29:44.245Z,15.40
2022-10-02T06:32:48.329Z,15.40
2022-10-02T06:35:26.659Z,15.40
2022-10-02T06:38:45.286Z,15.50
2022-10-02T06:41:47.315Z,15.50
2022-10-02T06:44:49.098Z,15.50
2022-10-02T06:47:44.666Z,15.60
2022-10-02T06:50:36.811Z,15.60
2022-10-02T06:53:24.434Z,15.60
2022-10-02T06:56:10.538Z,15.70
2022-10-02T06:59:17.321Z,15.70
2022-10-02T07:01:58.278Z,15.70
2022-10-02T07:05:09.536Z,15.70
2022-10-02T07:08:19.859Z,15.80
2022-10-02T07:11:08.987Z,15.80
2022-10-02T07:14:07.084Z,15.90
2022-10-02T07:16:57.807Z,15.90
2022-10-02T07:19:55.717Z,15.90
2022-10-02T07:22:56.345Z,15.90
2022-10-02T07:25:45.840Z,15.90
2022-10-02T07:28:27.288Z,15.90
2022-10-02T07:31:07.312Z,15.90
2022-10-02T07:34:28.445Z,15.90
2022-10-02T07:37:46.062Z,16.00
2022-10-02T07:41:00.325Z,16.00
2022-10-02T07:43:52.449Z,16.00
2022-10-02T07:47:27.643Z,16.00
2022-10-02T07:50:10.421Z,16.00
2022-10-02T07:52:58.551Z,16.00
2022-10-02T07:55:26.729Z,16.00
2022-10-02T07:59:04.074Z,16.10
2022-10-02T08:01:37.052Z,16.20
2022-10-02T08:04:26.870Z,16.30
2022-10-02T08:07:01.216Z,16.30
2022-10-02T08:09:43.750Z,16.40
2022-10-02T08:12:39.844Z,16.40
2022-10-02T08:15:15.693Z,16.50
2022-10-02T08:18:07.042Z,16.60
2022-10-02T08:20:47.188Z,16.70
2022-10-02T08:23:32.551Z,16.80
2022-10-02T08:26:18.067Z,16.90
2022-10-02T08:29:05.963Z,17.10
2022-10-02T08:31:33.316Z,16.20
2022-10-02T08:34:21.043Z,17.30
2022-10-02T08:37:10.418Z,17.40
2022-10-02T08:40:19.285Z,17.50
2022-10-02T08:43:15.279Z,17.60
2022-10-02T08:46:40.315Z,17.70
2022-10-02T08:49:47.226Z,17.80
2022-10-02T08:52:55.501Z,17.90
2022-10-02T08:55:47.284Z,18.00
2022-10-02T08:59:06.021Z,18.10
2022-10-02T09:02:33.116Z,18.20
2022-10-02T09:05:49.317Z,18.20
2022-10-02T09:08:51.229Z,18.40
2022-10-02T09:11:50.781Z,18.50
2022-10-02T09:14:21.006Z,18.60
2022-10-02T09:17:31.128Z,18.70
2022-10-02T09:20:40.387Z,18.80
2022-10-02T09:23:41.614Z,18.90
2022-10-02T09:26:24.201Z,19.00
2022-10-02T09:29:30.866Z,19.00
2022-10-02T09:32:28.433Z,19.10
2022-10-02T09:35:23.068Z,19.10
2022-10-02T09:38:29.788Z,19.10
2022-10-02T09:41:29.861Z,19.10
2022-10-02T09:44:38.345Z,19.20
2022-10-02T09:48:01.521Z,19.30
2022-10-02T09:51:04.664Z,19.30
2022-10-02T09:54:01.711Z,19.40
2022-10-02T09:57:28.266Z,19.40
2022-10-02T10:00:27.140Z,19.30
2022-10-02T10:03:42.281Z,19.30
2022-10-02T10:06:50.477Z,19.30
2022-10-02T10:10:02.542Z,19.30
2022-10-02T10:13:07.546Z,19.30
2022-10-02T10:16:23.824Z,19.40
2022-10-02T10:19:23.909Z,19.40
2022-10-02T10:22:46.091Z,19.40
2022-10-02T10:25:50.415Z,19.40
2022-10-02T10:28:49.027Z,19.30
2022-10-02T10:31:41.401Z,19.30
2022-10-02T10:35:03.383Z,19.20
2022-10-02T10:37:54.558Z,19.20
2022-10-02T10:40:37.141Z,19.20
2022-10-02T10:43:43.921Z,19.20
2022-10-02T10:46:51.949Z,19.10
2022-10-02T10:49:44.151Z,19.10
2022-10-02T10:52:55.043Z,18.90
2022-10-02T10:55:48.064Z,19.00
2022-10-02T10:58:57.663Z,19.00
2022-10-02T11:01:56.401Z,19.00
2022-10-02T11:04:58.446Z,18.90
2022-10-02T11:08:03.617Z,18.90
2022-10-02T11:10:57.494Z,18.90
2022-10-02T11:14:29.069Z,18.90
2022-10-02T11:17:17.121Z,18.90
2022-10-02T11:20:20.544Z,18.80
2022-10-02T11:23:06.626Z,18.80
2022-10-02T11:26:37.422Z,18.80
2022-10-02T11:29:16.855Z,18.80
2022-10-02T11:32:36.747Z,18.80
2022-10-02T11:35:32.132Z,18.80
2022-10-02T11:38:31.277Z,18.70
2022-10-02T11:41:21.055Z,18.60
2022-10-02T11:44:08.373Z,18.60
2022-10-02T11:47:08.262Z,18.50
2022-10-02T11:50:01.945Z,18.40
2022-10-02T11:52:54.521Z,18.30
2022-10-02T11:56:01.039Z,18.20
2022-10-02T11:58:44.866Z,18.20
2022-10-02T12:01:45.326Z,18.10
2022-10-02T12:04:43.729Z,18.10
2022-10-02T12:07:56.073Z,18.10
2022-10-02T12:10:53.867Z,18.00
2022-10-02T12:13:51.203Z,18.10
2022-10-02T12:16:41.645Z,18.10
2022-10-02T12:20:04.841Z,18.10
2022-10-02T12:23:47.746Z,18.20
2022-10-02T12:27:09.659Z,18.20
2022-10-02T12:30:05.585Z,18.20
2022-10-02T12:32:37.591Z,18.30
2022-10-02T12:35:28.095Z,18.40
2022-10-02T12:38:28.849Z,18.50
2022-10-02T12:41:14.808Z,18.50
2022-10-02T12:44:44.910Z,18.60
2022-10-02T12:47:48.181Z,18.60
2022-10-02T12:50:33.797Z,18.60
2022-10-02T12:53:09.713Z,18.60
2022-10-02T12:56:10.060Z,18.60
2022-10-02T12:59:08.317Z,18.60
2022-10-02T13:02:18.066Z,18.60
2022-10-02T13:05:44.592Z,18.60
2022-10-02T13:09:09.464Z,18.60
2022-10-02T13:12:24.567Z,18.70
2022-10-02T13:15:16.559Z,18.60
2022-10-02T13:18:12.100Z,18.60
2022-10-02T13:20:48.017Z,18.60
2022-10-02T13:24:05.974Z,18.60
2022-10-02T13:26:51.809Z,18.70
2022-10-02T13:29:46.855Z,18.80
2022-10-02T13:32:32.984Z,18.80
2022-10-02T13:35:18.307Z,18.90
2022-10-02T13:38:50.737Z,18.90
2022-10-02T13:41:36.797Z,18.90
2022-10-02T13:44:40.903Z,19.00
2022-10-02T13:47:39.038Z,19.00
2022-10-02T13:50:18.023Z,19.00
2022-10-02T13:53:07.971Z,19.00
2022-10-02T13:55:47.356Z,19.00
2022-10-02T13:58:57.076Z,18.90
2022-10-02T14:01:50.087Z,18.90
2022-10-02T14:04:42.286Z,18.90
2022-10-02T14:07:48.960Z,18.90
2022-10-02T14:10:56.150Z,18.90
2022-10-02T14:14:03.262Z,18.90
2022-10-02T14:16:48.446Z,18.90
2022-10-02T14:19:42.706Z,18.90
2022-10-02T14:23:07.485Z,18.90
2022-10-02T14:25:48.578Z,18.90
2022-10-02T14:29:01.395Z,18.90
2022-10-02T14:32:17.603Z,18.90
2022-10-02T14:35:30.314Z,18.90
2022-10-02T14:38:15.604Z,18.90
2022-10-02T14:40:58.217Z,19.00
2022-10-02T14:44:05.698Z,19.00
2022-10-02T14:47:23.508Z,19.00
2022-10-02T14:50:23.590Z,19.00
2022-10-02T14:53:41.257Z,19.10
2022-10-02T14:56:59.026Z,19.00
2022-10-02T14:59:55.518Z,19.10
2022-10-02T15:02:58.375Z,19.10
2022-10-02T15:05:56.934Z,19.20
2022-10-02T15:08:40.182Z,19.20
2022-10-02T15:11:25.539Z,19.10
2022-10-02T15:14:11.347Z,19.20
2022-10-02T15:17:16.884Z,19.20
2022-10-02T15:19:59.400Z,19.20
2022-10-02T15:22:39.047Z,19.20
2022-10-02T15:25:55.546Z,19.10
2022-10-02T15:29:05.535Z,19.10
2022-10-02T15:32:00.326Z,19.00
2022-10-02T15:34:46.533Z,19.00
2022-10-02T15:37:52.894Z,18.90
2022-10-02T15:40:53.597Z,18.90
2022-10-02T15:44:00.798Z,18.90
2022-10-02T15:47:25.547Z,18.90
2022-10-02T15:50:42.316Z,18.90
2022-10-02T15:53:26.636Z,18.90
2022-10-02T15:56:20.331Z,18.80
2022-10-02T15:59:07.199Z,18.80
2022-10-02T16:01:57.276Z,18.80
2022-10-02T16:05:01.830Z,18.80
2022-10-02T16:08:07.797Z,18.70
2022-10-02T16:11:09.037Z,18.70
2022-10-02T16:14:12.300Z,18.60
2022-10-02T16:16:42.306Z,18.60
2022-10-02T16:19:31.606Z,18.60
2022-10-02T16:22:12.246Z,18.50
2022-10-02T16:25:06.441Z,18.50
2022-10-02T16:27:52.584Z,18.40
2022-10-02T16:30:26.518Z,18.30
2022-10-02T16:33:19.283Z,18.20
2022-10-02T16:36:17.492Z,18.20
2022-10-02T16:39:21.030Z,18.10
2022-10-02T16:42:05.029Z,18.10
2022-10-02T16:45:02.862Z,18.00
2022-10-02T16:47:47.985Z,17.90
2022-10-02T16:50:26.292Z,17.90
2022-10-02T16:53:15.099Z,17.90
2022-10-02T16:55:56.107Z,17.80
2022-10-02T16:58:28.328Z,17.80
2022-10-02T17:01:01.178Z,17.70
2022-10-02T17:03:45.454Z,17.70
2022-10-02T17:06:32.644Z,17.70
2022-10-02T17:09:20.930Z,17.60
2022-10-02T17:12:01.957Z,17.60
2022-10-02T17:14:55.672Z,17.60
2022-10-02T17:17:43.552Z,17.50
2022-10-02T17:20:19.602Z,17.50
2022-10-02T17:23:15.983Z,17.40
2022-10-02T17:25:52.083Z,17.40
2022-10-02T17:29:12.769Z,17.40
2022-10-02T17:31:52.267Z,17.30
2022-10-02T17:34:33.886Z,17.30
2022-10-02T17:37:09.261Z,17.20
2022-10-02T17:40:20.979Z,17.20
2022-10-02T17:43:08.937Z,17.10
2022-10-02T17:46:19.598Z,17.10
2022-10-02T17:48:59.866Z,17.00
2022-10-02T17:51:54.550Z,17.00
2022-10-02T17:55:17.536Z,16.90
2022-10-02T17:58:08.866Z,16.90
2022-10-02T18:00:50.416Z,16.90
2022-10-02T18:03:52.917Z,16.90
2022-10-02T18:06:45.421Z,16.80
2022-10-02T18:09:49.586Z,16.80
2022-10-02T18:12:30.852Z,16.70
2022-10-02T18:15:24.185Z,16.70
2022-10-02T18:18:23.240Z,16.70
2022-10-02T18:21:17.534Z,16.60
2022-10-02T18:24:14.680Z,16.60
2022-10-02T18:27:26.771Z,16.60
2022-10-02T18:30:08.710Z,16.60
2022-10-02T18:33:38.017Z,16.60
2022-10-02T18:36:54.666Z,16.60
2022-10-02T18:39:42.101Z,16.50
2022-10-02T18:42:53.763Z,16.50
2022-10-02T18:46:00.083Z,16.50
2022-10-02T18:48:51.227Z,16.50
2022-10-02T18:51:57.175Z,16.50
2022-10-02T18:55:09.874Z,16.40
2022-10-02T18:58:07.580Z,16.40
2022-10-02T19:01:00.378Z,16.40
2022-10-02T19:04:10.938Z,16.30
2022-10-02T19:06:55.531Z,16.30
2022-10-02T19:09:29.126Z,16.30
2022-10-02T19:12:24.884Z,16.30
2022-10-02T19:15:18.823Z,16.30
2022-10-02T19:17:59.556Z,16.30
2022-10-02T19:21:06.687Z,16.30
2022-10-02T19:23:50.578Z,16.20
2022-10-02T19:26:24.561Z,16.20
2022-10-02T19:28:59.063Z,16.20
2022-10-02T19:31:30.311Z,16.20
2022-10-02T19:34:10.802Z,16.20
2022-10-02T19:36:50.246Z,16.20
2022-10-02T19:39:30.590Z,16.10
2022-10-02T19:42:03.203Z,16.10
2022-10-02T19:44:38.657Z,16.20
2022-10-02T19:47:27.664Z,16.10
2022-10-02T19:49:57.654Z,16.10
2022-10-02T19:52:57.618Z,16.10
2022-10-02T19:55:31.627Z,15.90
2022-10-02T19:58:14.137Z,16.00
2022-10-02T20:00:42.125Z,16.00
2022-10-02T20:03:18.338Z,15.90
2022-10-02T20:05:49.269Z,15.80
2022-10-02T20:08:43.298Z,15.90
2022-10-02T20:11:42.133Z,15.90
2022-10-02T20:14:21.638Z,15.90
2022-10-02T20:17:07.290Z,15.80
2022-10-02T20:19:51.997Z,15.80
2022-10-02T20:22:34.351Z,15.80
2022-10-02T20:25:12.453Z,15.70
2022-10-02T20:27:51.960Z,15.70
2022-10-02T20:30:21.855Z,15.70
2022-10-02T20:33:15.187Z,15.60
2022-10-02T20:35:54.390Z,15.60
2022-10-02T20:38:43.632Z,15.50
2022-10-02T20:41:24.900Z,15.60
2022-10-02T20:44:02.253Z,15.60
2022-10-02T20:46:47.370Z,15.50
2022-10-02T20:49:40.194Z,15.60
2022-10-02T20:53:06.387Z,15.50
2022-10-02T20:56:03.480Z,15.50
2022-10-02T20:59:16.558Z,15.40
2022-10-02T21:02:19.785Z,15.40
2022-10-02T21:05:45.900Z,15.40
2022-10-02T21:08:30.574Z,15.40
2022-10-02T21:11:34.097Z,15.30
2022-10-02T21:14:42.119Z,15.30
2022-10-02T21:17:45.117Z,15.30
2022-10-02T21:20:55.486Z,15.30
2022-10-02T21:24:16.282Z,15.20
2022-10-02T21:27:07.847Z,15.20
2022-10-02T21:30:23.767Z,15.20
2022-10-02T21:33:05.318Z,15.20
2022-10-02T21:36:09.032Z,15.20
2022-10-02T21:38:48.499Z,15.10
2022-10-02T21:42:07.297Z,15.10
2022-10-02T21:45:41.228Z,15.10
2022-10-02T21:48:53.965Z,15.10
2022-10-02T21:51:45.413Z,15.00
2022-10-02T21:54:58.402Z,15.00
2022-10-02T21:58:05.158Z,15.00
2022-10-02T22:00:43.737Z,15.00
2022-10-02T22:04:02.232Z,15.00
2022-10-02T22:06:37.701Z,14.90
2022-10-02T22:09:18.349Z,14.90
2022-10-02T22:12:23.754Z,14.90
2022-10-02T22:15:11.022Z,14.90
2022-10-02T22:18:06.100Z,14.90
2022-10-02T22:21:17.963Z,14.90
2022-10-02T22:24:23.748Z,14.80
2022-10-02T22:27:14.039Z,14.80
2022-10-02T22:29:56.584Z,14.80
2022-10-02T22:33:10.706Z,14.80
2022-10-02T22:36:08.200Z,14.80
2022-10-02T22:38:38.111Z,14.80
2022-10-02T22:41:16.261Z,14.80
2022-10-02T22:44:20.250Z,14.70
2022-10-02T22:46:57.579Z,14.70
2022-10-02T22:49:59.557Z,14.70
2022-10-02T22:52:53.109Z,14.70
2022-10-02T22:55:33.967Z,14.70
2022-10-02T22:58:18.758Z,14.70
2022-10-02T23:01:08.159Z,14.70
2022-10-02T23:03:54.077Z,14.70
2022-10-02T23:06:32.853Z,14.60
2022-10-02T23:09:30.894Z,14.60
2022-10-02T23:12:15.134Z,14.60
2022-10-02T23:14:53.843Z,14.60
2022-10-02T23:17:50.197Z,14.60
2022-10-02T23:20:45.009Z,14.60
2022-10-02T23:23:17.408Z,14.50
2022-10-02T23:26:07.093Z,14.50
2022-10-02T23:29:18.816Z,14.50
2022-10-02T23:32:00.563Z,14.50
2022-10-02T23:34:51.662Z,14.40
2022-10-02T23:38:04.164Z,14.40
2022-10-02T23:41:51.596Z,14.40
2022-10-02T23:44:41.566Z,14.40
2022-10-02T23:47:34.411Z,14.40
2022-10-02T23:50:02.330Z,14.40
2022-10-02T23:52:54.935Z,14.40
2022-10-02T23:55:52.524Z,14.40
2022-10-02T23:58:41.586Z,14.50
